Impacts TAF Board INFO
FOR SITUATIONAL AWARENESS. NOT TO BE USED FOR FLIGHT PLANNING PURPOSES.
IDs:

KLAS - Las Vegas/McCarran I, NV, US

Issued at 1725 UTC 16 Aug 2017
Updated at 1935 UTC 16 Aug 2017
Potential Impact None Slight Moderate High
Time1856Z 16/20Z 16/21Z 16/22Z 16/23Z 17/00Z 17/01Z 17/02Z 17/03Z 17/04Z 17/05Z 17/06Z 17/07Z 17/08Z>>
Type OBS PRVL PRVL PRVL PRVL PRVL PRVL PRVL PRVL PRVL PRVL PRVL PRVL PRVL
VIS 10 >6 >6 >6 >6 >6 >6 >6 >6 >6 >6 >6 >6 >6
CIG -- -- -- -- -- -- -- -- -- -- -- -- -- --
Cover FEW SKC SKC SKC FEW FEW FEW FEW FEW FEW SKC SKC SKC FEW
FltCat VFR VFR VFR VFR VFR VFR VFR VFR VFR VFR VFR VFR VFR VFR
WX -- -- -- -- -- -- -- -- -- -- -- -- -- --
WDir VRB 90 90 90 130 130 130 130 130 130 210 210 210 VRB
WSpd 3 7 7 7 8 8 8 8 8 8 7 7 7 5
WGst -- -- -- -- -- -- -- -- -- -- -- -- -- --

Raw TAF
KLAS 161725Z 1618/1724 09007KT P6SM SKC
  FM162300 13008KT P6SM FEW120
  FM170500 21007KT P6SM SKC
  FM170800 VRB05KT P6SM FEW120
  FM171700 09008KT P6SM FEW120


Raw METAR
KLAS 161856Z VRB03KT 10SM FEW120 34/03 A2993 RMK AO2 SLP104 T03390033
KLAS 161756Z 00000KT 10SM FEW120 33/03 A2994 RMK AO2 SLP108 T03280033 10328 20244 51007
KLAS 161656Z VRB05KT 10SM CLR 31/04 A2994 RMK AO2 SLP109 T03060044

METAR Board
Radar Display
Forecast Discussion

FOR SITUATIONAL AWARENESS. NOT TO BE USED FOR FLIGHT PLANNING PURPOSES.